Time;durP1;ratioP1;P1;durP2;ratioP2;P2;SDS_P1;SDS_P2;PMS_P1;PMS_P2;Temp;Humidity;BMP_temperature;BMP_pressure;BME280_temperature;BME280_humidity;BME280_pressure;Samples;Min_cycle;Max_cycle;Signal;HPM_P1;HPM_P2
2022/03/14 00:01:05;;;;;;;128.60;63.13;;;;;;;1.79;57.07;102503.75;1783657;80;20943;-71
2022/03/14 00:03:45;;;;;;;127.27;63.20;;;;;;;1.77;57.26;102501.14;1783565;80;20943;-71
2022/03/14 00:06:02;;;;;;;113.85;54.20;;;;;;;1.76;57.45;102508.91;1780599;80;21043;-71
2022/03/14 00:08:31;;;;;;;103.22;52.73;;;;;;;1.74;57.60;102506.73;1783658;80;20873;-72
2022/03/14 00:10:58;;;;;;;77.72;39.25;;;;;;;1.71;57.69;102502.38;1783510;80;21149;-72
2022/03/14 00:13:26;;;;;;;85.40;48.13;;;;;;;1.72;57.64;102504.56;1783414;80;20856;-71
2022/03/14 00:15:55;;;;;;;88.17;46.75;;;;;;;1.70;57.64;102503.69;1783502;80;20960;-70
2022/03/14 00:18:26;;;;;;;83.07;44.85;;;;;;;1.67;57.75;102494.19;1783634;80;21382;-70
2022/03/14 00:20:54;;;;;;;71.15;39.67;;;;;;;1.67;57.95;102495.48;1783535;80;20927;-73
2022/03/14 00:23:22;;;;;;;66.90;37.80;;;;;;;1.68;57.91;102498.93;1783519;80;21970;-73
2022/03/14 00:25:50;;;;;;;60.58;33.40;;;;;;;1.66;57.99;102496.32;1783866;80;20896;-72
2022/03/14 00:28:19;;;;;;;59.18;33.10;;;;;;;1.68;57.82;102493.32;1783494;80;20892;-71
2022/03/14 00:30:48;;;;;;;53.85;30.55;;;;;;;1.66;57.61;102499.77;1783602;80;20940;-72
2022/03/14 00:33:15;;;;;;;53.15;28.40;;;;;;;1.59;57.64;102494.11;1783644;80;20971;-72
2022/03/14 00:35:42;;;;;;;40.40;24.20;;;;;;;1.55;57.54;102496.23;1783862;80;21765;-73
2022/03/14 00:38:09;;;;;;;54.50;29.40;;;;;;;1.54;57.44;102493.22;1783617;80;20880;-72
2022/03/14 00:40:37;;;;;;;57.20;32.13;;;;;;;1.58;57.76;102493.69;1783431;80;20892;-71
2022/03/14 00:43:04;;;;;;;72.90;38.60;;;;;;;1.62;57.84;102491.57;1783476;80;21003;-71
2022/03/14 00:45:31;;;;;;;78.02;39.58;;;;;;;1.65;57.98;102498.48;1770805;80;20928;-72
2022/03/14 00:47:58;;;;;;;75.10;39.95;;;;;;;1.66;58.52;102493.73;1768216;81;21136;-71
2022/03/14 00:50:26;;;;;;;70.62;38.40;;;;;;;1.64;58.84;102504.05;1768151;80;20992;-71
2022/03/14 00:52:53;;;;;;;72.17;41.20;;;;;;;1.62;59.17;102502.32;1768146;81;21426;-73
2022/03/14 00:55:20;;;;;;;79.30;38.55;;;;;;;1.59;59.24;102500.58;1768089;81;21335;-70
2022/03/14 00:57:47;;;;;;;71.15;38.90;;;;;;;1.58;59.41;102502.74;1768099;81;21375;-72
2022/03/14 01:00:14;;;;;;;67.85;35.17;;;;;;;1.58;59.29;102504.44;1768517;81;21826;-73
2022/03/14 01:02:41;;;;;;;77.10;37.60;;;;;;;1.59;59.12;102508.34;1767999;81;20932;-71
2022/03/14 01:05:09;;;;;;;65.25;34.70;;;;;;;1.61;59.13;102513.53;1768308;80;21023;-71
2022/03/14 01:07:37;;;;;;;62.30;33.60;;;;;;;1.62;59.00;102513.95;1768133;81;20861;-71
2022/03/14 01:10:07;;;;;;;66.72;32.70;;;;;;;1.60;58.70;102513.97;1768116;81;20857;-73
2022/03/14 01:12:34;;;;;;;59.85;32.55;;;;;;;1.60;58.90;102515.26;1768153;80;21133;-73
2022/03/14 01:15:02;;;;;;;49.80;27.35;;;;;;;1.60;58.93;102513.08;1768127;81;21015;-70
2022/03/14 01:17:30;;;;;;;70.95;33.45;;;;;;;1.60;58.59;102513.08;1768078;81;20893;-71
2022/03/14 01:19:57;;;;;;;65.03;35.10;;;;;;;1.57;58.59;102520.38;1768133;80;20905;-71
2022/03/14 01:22:24;;;;;;;51.90;28.55;;;;;;;1.54;58.68;102518.22;1768229;81;20921;-72
2022/03/14 01:24:51;;;;;;;54.40;29.12;;;;;;;1.51;58.92;102525.50;1768162;81;21862;-73
2022/03/14 01:27:18;;;;;;;46.18;25.77;;;;;;;1.51;58.73;102521.63;1768052;81;20996;-72
2022/03/14 01:29:45;;;;;;;39.30;24.25;;;;;;;1.51;58.57;102526.79;1768162;81;20908;-71
2022/03/14 01:32:14;;;;;;;38.98;22.60;;;;;;;1.53;58.60;102525.52;1768093;81;21532;-71
2022/03/14 01:34:42;;;;;;;38.20;23.02;;;;;;;1.55;58.45;102531.14;1768126;80;20893;-72
2022/03/14 01:37:09;;;;;;;42.80;22.82;;;;;;;1.56;58.39;102526.42;1768184;80;21800;-71
2022/03/14 01:39:36;;;;;;;37.70;21.68;;;;;;;1.56;58.40;102531.59;1768274;81;20849;-72
2022/03/14 01:42:03;;;;;;;42.58;26.17;;;;;;;1.55;58.52;102542.77;1768421;81;20928;-72
2022/03/14 01:44:30;;;;;;;41.15;23.90;;;;;;;1.53;58.69;102534.14;1767967;80;20932;-73
2022/03/14 01:47:00;;;;;;;50.67;27.85;;;;;;;1.53;58.70;102539.31;1768074;81;21425;-71
2022/03/14 01:49:27;;;;;;;46.00;25.68;;;;;;;1.52;58.83;102537.59;1768198;81;21136;-72
2022/03/14 01:51:57;;;;;;;43.15;26.20;;;;;;;1.51;58.92;102537.12;1768061;80;21046;-71
2022/03/14 01:54:23;;;;;;;46.53;25.15;;;;;;;1.50;58.95;102541.87;1768082;81;20940;-71
2022/03/14 01:56:50;;;;;;;43.00;26.80;;;;;;;1.49;59.05;102539.27;1768355;81;20869;-71
2022/03/14 01:59:18;;;;;;;44.27;24.63;;;;;;;1.49;59.11;102539.27;1768104;81;21402;-72
2022/03/14 02:01:47;;;;;;;40.70;24.52;;;;;;;1.51;59.15;102544.03;1768175;80;20881;-71
2022/03/14 02:04:18;;;;;;;42.15;23.38;;;;;;;1.51;59.18;102548.77;1768052;81;20940;-72
2022/03/14 02:06:49;;;;;;;43.73;23.67;;;;;;;1.52;59.16;102550.52;1768092;81;20995;-74
2022/03/14 02:09:13;;;;;;;36.50;23.00;;;;;;;1.54;59.12;102545.37;1718473;83;20921;-72
2022/03/14 02:12:00;;;;;;;42.53;25.08;;;;;;;1.56;59.14;102548.84;1768051;81;20940;-71
2022/03/14 02:14:31;;;;;;;38.85;22.65;;;;;;;1.57;59.33;102551.84;1768130;80;20916;-71
2022/03/14 02:16:58;;;;;;;40.48;24.27;;;;;;;1.55;59.44;102557.43;1768021;81;20858;-72
2022/03/14 02:19:26;;;;;;;45.28;23.55;;;;;;;1.49;59.70;102556.97;1768176;81;20976;-71
2022/03/14 02:21:53;;;;;;;42.85;23.07;;;;;;;1.45;59.94;102563.81;1768119;81;20936;-72
2022/03/14 02:24:20;;;;;;;35.83;23.15;;;;;;;1.39;60.54;102556.43;1768673;81;20888;-72
2022/03/14 02:26:47;;;;;;;43.70;25.08;;;;;;;1.39;60.81;102561.59;1768091;81;21034;-72
2022/03/14 02:29:14;;;;;;;41.80;24.85;;;;;;;1.43;61.00;102559.05;1767921;81;21476;-71
2022/03/14 02:31:45;;;;;;;45.30;25.52;;;;;;;1.46;61.24;102558.21;1768535;81;20912;-73
2022/03/14 02:34:10;;;;;;;54.13;29.45;;;;;;;1.49;61.27;102564.72;1718808;83;20920;-71
2022/03/14 02:36:39;;;;;;;48.42;27.27;;;;;;;1.48;61.26;102560.38;1768078;81;21082;-72
2022/03/14 02:39:07;;;;;;;47.15;27.20;;;;;;;1.47;61.36;102567.72;1768153;81;21150;-71
2022/03/14 02:41:36;;;;;;;47.38;26.73;;;;;;;1.46;61.43;102563.38;1767967;81;21434;-72
2022/03/14 02:44:06;;;;;;;42.05;25.50;;;;;;;1.46;61.48;102568.55;1768085;81;20861;-72
2022/03/14 02:46:34;;;;;;;41.98;24.75;;;;;;;1.45;61.43;102570.28;1774891;80;20979;-71
2022/03/14 02:49:01;;;;;;;42.70;24.90;;;;;;;1.44;61.38;102572.84;1775126;80;21398;-74
2022/03/14 02:51:29;;;;;;;37.67;23.52;;;;;;;1.46;61.50;102576.30;1775128;80;21802;-72
2022/03/14 02:53:57;;;;;;;38.28;20.90;;;;;;;1.45;61.60;102574.16;1775110;80;20841;-71
2022/03/14 02:56:26;;;;;;;31.33;19.50;;;;;;;1.48;61.52;102575.90;1775120;80;21022;-72
2022/03/14 02:58:55;;;;;;;27.80;16.55;;;;;;;1.47;61.50;102580.64;1775105;80;20979;-71
2022/03/14 03:01:22;;;;;;;28.52;17.00;;;;;;;1.43;61.54;102582.75;1775225;80;21496;-71
2022/03/14 03:03:50;;;;;;;31.33;18.02;;;;;;;1.40;61.77;102586.58;1775225;80;21129;-72
2022/03/14 03:06:22;;;;;;;26.33;17.10;;;;;;;1.39;61.89;102582.28;1775279;80;21438;-71
2022/03/14 03:08:46;;;;;;;28.40;18.17;;;;;;;1.40;61.97;102584.89;1774777;80;20944;-73
2022/03/14 03:11:13;;;;;;;26.15;16.45;;;;;;;1.42;62.08;102584.48;1775292;80;21541;-71
2022/03/14 03:13:43;;;;;;;26.52;15.95;;;;;;;1.44;62.24;102584.03;1775436;80;20889;-74
2022/03/14 03:16:16;;;;;;;30.37;17.98;;;;;;;1.45;62.20;102578.03;1775438;80;21221;-72
2022/03/14 03:18:44;;;;;;;28.62;16.05;;;;;;;1.47;62.25;102581.05;1775230;80;20944;-71
2022/03/14 03:21:11;;;;;;;36.10;20.92;;;;;;;1.48;62.27;102578.48;1775535;80;20873;-72
2022/03/14 03:23:41;;;;;;;27.65;17.12;;;;;;;1.49;62.29;102574.17;1775339;80;21469;-73
2022/03/14 03:26:10;;;;;;;29.35;16.62;;;;;;;1.51;62.27;102575.05;1775370;80;21338;-71
2022/03/14 03:28:38;;;;;;;26.35;15.23;;;;;;;1.48;62.30;102570.73;1775298;80;21835;-72
2022/03/14 03:31:20;;;;;;;29.52;17.07;;;;;;;1.49;62.45;102575.46;1775236;80;20979;-74
2022/03/14 03:33:50;;;;;;;25.52;16.77;;;;;;;1.49;62.55;102570.30;1775275;80;20889;-73
2022/03/14 03:36:16;;;;;;;26.87;17.23;;;;;;;1.47;62.55;102579.75;1775409;80;20968;-72
2022/03/14 03:38:44;;;;;;;25.43;15.88;;;;;;;1.44;62.62;102578.87;1775306;80;20944;-71
2022/03/14 03:41:11;;;;;;;28.85;15.85;;;;;;;1.44;62.71;102573.70;1775294;80;21130;-72
2022/03/14 03:43:40;;;;;;;24.95;14.55;;;;;;;1.46;62.77;102582.77;1775278;80;20861;-73
2022/03/14 03:46:07;;;;;;;25.82;15.55;;;;;;;1.46;62.79;102577.59;1775389;80;20916;-72
2022/03/14 03:48:36;;;;;;;28.02;16.35;;;;;;;1.47;62.87;102578.45;1775291;80;20865;-72
2022/03/14 03:51:03;;;;;;;26.60;15.25;;;;;;;1.47;62.91;102576.77;1775626;80;20857;-71
2022/03/14 03:53:31;;;;;;;21.87;14.85;;;;;;;1.47;62.96;102582.34;1775268;80;21597;-73
2022/03/14 03:55:58;;;;;;;24.23;15.68;;;;;;;1.45;63.03;102578.47;1775398;80;20916;-71
2022/03/14 03:58:25;;;;;;;24.98;14.80;;;;;;;1.44;63.08;102577.58;1775739;80;20991;-72
2022/03/14 04:00:53;;;;;;;26.62;15.95;;;;;;;1.44;63.13;102580.59;1775339;80;21019;-72
2022/03/14 04:03:21;;;;;;;22.73;13.22;;;;;;;1.42;63.22;102581.89;1775243;80;20928;-74
2022/03/14 04:05:49;;;;;;;21.93;14.65;;;;;;;1.43;63.34;102582.75;1775492;80;21102;-72
2022/03/14 04:08:17;;;;;;;21.60;12.98;;;;;;;1.42;63.45;102588.76;1775179;80;20893;-73
2022/03/14 04:10:45;;;;;;;22.90;13.05;;;;;;;1.44;63.49;102602.56;1775448;80;20900;-73
2022/03/14 04:13:14;;;;;;;19.67;12.35;;;;;;;1.41;63.43;102593.06;1775141;80;20984;-73
2022/03/14 04:15:53;;;;;;;28.73;12.55;;;;;;;1.40;63.39;102595.63;1775332;80;20928;-74
2022/03/14 04:18:27;;;;;;;21.75;13.60;;;;;;;1.35;63.48;102603.34;1775240;80;21140;-73
2022/03/14 04:20:54;;;;;;;18.90;12.82;;;;;;;1.33;63.75;102609.34;1775203;80;21446;-71
2022/03/14 04:23:21;;;;;;;19.52;12.35;;;;;;;1.34;63.84;102611.10;1775242;80;20944;-72
2022/03/14 04:25:50;;;;;;;20.25;12.25;;;;;;;1.37;63.81;102613.70;1775250;80;21960;-74
2022/03/14 04:28:17;;;;;;;19.80;12.68;;;;;;;1.37;63.84;102617.15;1775278;80;20995;-72
2022/03/14 04:30:44;;;;;;;19.85;11.10;;;;;;;1.35;63.78;102620.14;1775582;80;21131;-73
2022/03/14 04:33:12;;;;;;;18.10;11.93;;;;;;;1.35;63.97;102620.57;1775171;80;20935;-73
2022/03/14 04:35:39;;;;;;;20.62;12.50;;;;;;;1.34;64.02;102615.84;1775420;80;20873;-73
2022/03/14 04:38:09;;;;;;;16.30;11.57;;;;;;;1.36;64.05;102623.62;1775207;80;20924;-73
2022/03/14 04:40:36;;;;;;;23.62;13.58;;;;;;;1.37;64.01;102631.36;1775364;80;20924;-72
2022/03/14 04:43:05;;;;;;;17.25;11.57;;;;;;;1.40;64.07;102630.52;1775343;80;21216;-73
2022/03/14 04:45:35;;;;;;;16.97;11.25;;;;;;;1.42;63.95;102625.84;1775095;80;21406;-72
2022/03/14 04:48:04;;;;;;;17.45;10.98;;;;;;;1.45;63.80;102631.03;1775260;80;21494;-75
2022/03/14 04:50:32;;;;;;;17.60;11.55;;;;;;;1.48;63.63;102633.20;1775148;80;20860;-72
2022/03/14 04:52:59;;;;;;;19.90;12.58;;;;;;;1.43;63.56;102636.61;1775607;80;20865;-73
2022/03/14 04:55:26;;;;;;;17.55;12.43;;;;;;;1.38;63.57;102637.39;1775350;80;21129;-73
2022/03/14 04:57:53;;;;;;;18.40;10.30;;;;;;;1.32;63.65;102634.33;1775500;80;20904;-73
2022/03/14 05:00:22;;;;;;;15.88;10.88;;;;;;;1.29;63.58;102639.88;1775255;80;21322;-73
2022/03/14 05:02:49;;;;;;;15.10;10.78;;;;;;;1.28;63.74;102644.63;1775296;80;20925;-72
2022/03/14 05:05:16;;;;;;;17.57;11.05;;;;;;;1.32;63.88;102647.69;1775657;80;20892;-73
2022/03/14 05:07:45;;;;;;;22.07;10.40;;;;;;;1.37;63.74;102642.14;1775619;80;21157;-72
2022/03/14 05:10:12;;;;;;;16.55;11.15;;;;;;;1.41;63.61;102640.89;1775265;80;20908;-71
2022/03/14 05:12:40;;;;;;;18.20;10.75;;;;;;;1.47;63.36;102644.38;1775265;80;21003;-74
2022/03/14 05:15:09;;;;;;;16.80;10.32;;;;;;;1.50;63.18;102641.42;1775167;80;20912;-73
2022/03/14 05:17:36;;;;;;;18.23;10.50;;;;;;;1.51;63.07;102632.80;1775134;80;20971;-72
2022/03/14 05:20:04;;;;;;;15.85;10.03;;;;;;;1.54;62.90;102632.84;1775612;80;21776;-73
2022/03/14 05:22:32;;;;;;;17.02;10.55;;;;;;;1.54;62.73;102634.57;1775302;80;20877;-73
2022/03/14 05:24:59;;;;;;;15.53;10.53;;;;;;;1.57;62.66;102644.93;1775233;80;20900;-74
2022/03/14 05:27:27;;;;;;;17.00;10.60;;;;;;;1.59;62.45;102635.47;1775095;80;20964;-73
2022/03/14 05:29:54;;;;;;;18.50;11.20;;;;;;;1.58;62.19;102634.61;1775527;80;20842;-72
2022/03/14 05:32:22;;;;;;;18.73;10.40;;;;;;;1.58;62.07;102638.48;1775179;80;21109;-73
2022/03/14 05:34:49;;;;;;;14.28;9.03;;;;;;;1.57;62.04;102639.77;1775230;80;20853;-74
2022/03/14 05:37:17;;;;;;;12.90;8.45;;;;;;;1.57;61.89;102641.05;1775247;80;20975;-73
2022/03/14 05:39:44;;;;;;;13.32;9.15;;;;;;;1.54;61.93;102641.89;1775360;80;20999;-73
2022/03/14 05:42:11;;;;;;;16.05;10.00;;;;;;;1.51;61.76;102640.55;1775616;80;20852;-74
2022/03/14 05:44:38;;;;;;;16.48;9.48;;;;;;;1.49;61.80;102643.97;1775236;80;21247;-72
2022/03/14 05:47:05;;;;;;;12.93;8.30;;;;;;;1.49;61.91;102643.58;1781189;80;20927;-72
2022/03/14 05:49:32;;;;;;;12.73;8.45;;;;;;;1.52;61.72;102650.49;1783622;80;21305;-73
2022/03/14 05:51:59;;;;;;;13.70;7.60;;;;;;;1.53;61.62;102653.06;1783660;80;20940;-73
2022/03/14 05:54:27;;;;;;;11.93;9.05;;;;;;;1.57;61.55;102650.96;1783555;80;21448;-73
2022/03/14 05:56:54;;;;;;;11.83;8.23;;;;;;;1.65;61.49;102653.64;1783437;80;21818;-73
2022/03/14 05:59:22;;;;;;;13.35;8.35;;;;;;;1.66;61.21;102648.46;1783354;80;20853;-73
2022/03/14 06:01:49;;;;;;;11.65;7.62;;;;;;;1.68;60.99;102653.66;1783548;80;20880;-73
2022/03/14 06:04:18;;;;;;;9.95;7.55;;;;;;;1.75;60.65;102661.05;1783380;80;20978;-73
2022/03/14 06:06:45;;;;;;;11.95;6.97;;;;;;;1.80;60.20;102655.08;1783689;80;20975;-72
2022/03/14 06:09:12;;;;;;;15.70;7.80;;;;;;;1.79;59.92;102650.75;1783678;80;21235;-73
2022/03/14 06:11:40;;;;;;;9.60;6.75;;;;;;;1.83;59.65;102656.83;1783437;80;20892;-73
2022/03/14 06:14:07;;;;;;;11.43;8.13;;;;;;;1.77;59.50;102652.45;1752861;80;20935;-73
2022/03/14 06:16:34;;;;;;;9.58;6.72;;;;;;;1.80;59.56;102653.79;1783380;80;20908;-74
2022/03/14 06:19:02;;;;;;;9.38;6.90;;;;;;;1.88;59.23;102655.14;1783791;80;21532;-74
2022/03/14 06:21:30;;;;;;;17.55;7.72;;;;;;;1.97;59.00;102651.34;1783549;80;21882;-74
2022/03/14 06:23:58;;;;;;;9.93;7.45;;;;;;;2.03;58.76;102654.41;1783311;80;20892;-72
2022/03/14 06:26:25;;;;;;;11.45;6.78;;;;;;;2.05;58.55;102654.86;1783875;80;20951;-75
2022/03/14 06:28:52;;;;;;;11.85;7.12;;;;;;;2.06;58.57;102648.82;1783502;80;20896;-74
2022/03/14 06:31:19;;;;;;;13.40;7.20;;;;;;;2.06;58.87;102650.55;1783548;80;20853;-74
2022/03/14 06:33:49;;;;;;;11.00;6.80;;;;;;;2.09;58.62;102646.71;1783438;80;21023;-72
2022/03/14 06:36:15;;;;;;;11.05;7.47;;;;;;;2.10;58.26;102651.02;1783629;80;20904;-74
2022/03/14 06:38:42;;;;;;;11.22;7.03;;;;;;;2.13;58.14;102647.58;1783375;80;20955;-74
2022/03/14 06:41:11;;;;;;;10.78;7.78;;;;;;;2.14;57.99;102649.33;1783470;80;20928;-73
2022/03/14 06:43:38;;;;;;;10.75;6.80;;;;;;;2.17;57.86;102648.91;1783527;80;20849;-74
2022/03/14 06:46:05;;;;;;;9.40;6.03;;;;;;;2.18;57.31;102644.19;1780634;80;22199;-75
2022/03/14 06:48:39;;;;;;;10.63;6.83;;;;;;;2.17;56.99;102642.88;1767778;81;21035;-75
2022/03/14 06:51:01;;;;;;;12.50;6.37;;;;;;;2.16;56.75;102647.19;1766807;81;20928;-75
2022/03/14 06:53:29;;;;;;;9.95;5.97;;;;;;;2.14;56.69;102640.27;1768224;80;20853;-74
2022/03/14 06:55:56;;;;;;;9.03;5.20;;;;;;;2.12;56.46;102640.69;1768085;81;20987;-73
2022/03/14 07:00:28;;;;;;;7.33;4.97;;;;;;;2.13;55.34;102635.94;1816364;79;23252;-73
2022/03/14 07:02:55;;;;;;;8.98;5.28;;;;;;;2.08;54.77;102641.94;1789630;80;20970;-74
2022/03/14 07:05:24;;;;;;;8.75;5.50;;;;;;;2.12;54.52;102645.86;1789534;80;21318;-73
2022/03/14 07:07:51;;;;;;;7.05;4.97;;;;;;;2.18;54.08;102649.36;1789795;80;20911;-75
2022/03/14 07:10:18;;;;;;;6.05;4.12;;;;;;;2.43;53.57;102646.95;1789595;80;20872;-72
2022/03/14 07:12:46;;;;;;;4.50;3.80;;;;;;;2.75;53.13;102649.71;1789491;80;20975;-75
2022/03/14 07:15:22;;;;;;;4.95;3.95;;;;;;;2.97;51.61;102648.53;1789627;80;20945;-73
2022/03/14 07:17:50;;;;;;;9.90;4.45;;;;;;;3.04;50.71;102651.58;1789507;80;21136;-73
2022/03/14 07:20:18;;;;;;;8.93;4.37;;;;;;;3.03;49.84;102653.75;1789395;79;20924;-73
2022/03/14 07:22:54;;;;;;;5.08;4.03;;;;;;;2.97;49.38;102658.45;1789264;79;20872;-74
2022/03/14 07:25:25;;;;;;;5.35;3.80;;;;;;;2.87;49.51;102654.97;1789422;80;20864;-73
2022/03/14 07:27:54;;;;;;;5.90;4.47;;;;;;;2.90;49.38;102654.97;1789362;80;20967;-74
2022/03/14 07:30:22;;;;;;;4.50;4.08;;;;;;;3.38;49.32;102655.58;1789684;80;21114;-73
2022/03/14 07:32:49;;;;;;;5.28;3.77;;;;;;;4.29;48.39;102647.02;1789406;80;20892;-74
2022/03/14 07:35:16;;;;;;;7.58;5.00;;;;;;;5.11;47.12;102647.66;1789474;79;20904;-73
2022/03/14 07:37:44;;;;;;;10.23;5.65;;;;;;;5.56;44.53;102642.22;1753656;80;20907;-73
2022/03/14 07:40:15;;;;;;;6.05;4.42;;;;;;;5.68;44.53;102640.81;1789028;80;21429;-74
2022/03/14 07:42:46;;;;;;;7.85;4.80;;;;;;;5.73;44.10;102632.53;1789371;79;21119;-73
2022/03/14 07:45:16;;;;;;;6.92;4.80;;;;;;;5.68;44.01;102642.12;1789110;80;20852;-74
2022/03/14 07:47:43;;;;;;;7.28;5.45;;;;;;;5.56;44.06;102644.82;1789398;80;20939;-72
2022/03/14 07:50:15;;;;;;;8.78;5.37;;;;;;;5.41;44.39;102643.16;1789403;80;21370;-74
2022/03/14 07:52:43;;;;;;;7.53;4.85;;;;;;;5.26;44.82;102649.75;1789427;80;21349;-74
2022/03/14 07:55:11;;;;;;;6.15;5.42;;;;;;;5.09;44.69;102648.11;1789478;80;21794;-72
2022/03/14 07:57:39;;;;;;;8.20;5.50;;;;;;;5.13;44.05;102654.14;1789324;80;20887;-73
2022/03/14 08:00:16;;;;;;;8.38;4.78;;;;;;;5.44;43.81;102649.64;1785459;80;20948;-74
2022/03/14 08:02:45;;;;;;;7.03;4.60;;;;;;;6.06;43.52;102651.41;1784151;80;20987;-74
2022/03/14 08:05:17;;;;;;;7.47;5.33;;;;;;;6.79;41.98;102648.51;1784139;80;21007;-74
2022/03/14 08:07:47;;;;;;;7.12;4.50;;;;;;;7.19;40.88;102650.63;1784210;80;20939;-73
2022/03/14 08:10:17;;;;;;;5.85;5.05;;;;;;;7.25;40.10;102652.31;1783562;80;20959;-75
2022/03/14 08:12:55;;;;;;;6.70;4.95;;;;;;;7.39;39.65;102652.97;1783554;80;20943;-73
2022/03/14 08:15:30;;;;;;;5.28;4.78;;;;;;;7.65;39.85;102653.05;1783545;80;20852;-74
2022/03/14 08:18:01;;;;;;;9.53;4.97;;;;;;;8.24;38.59;102642.05;1783532;80;20841;-75
2022/03/14 08:20:32;;;;;;;6.55;5.00;;;;;;;9.02;37.54;102641.47;1783545;80;21761;-74
2022/03/14 08:23:01;;;;;;;5.92;4.90;;;;;;;9.51;35.91;102640.39;1783574;80;20999;-74
2022/03/14 08:25:28;;;;;;;15.00;5.20;;;;;;;9.85;35.01;102643.52;1783548;80;21468;-75
2022/03/14 08:27:56;;;;;;;6.22;4.22;;;;;;;10.39;34.93;102644.37;1783426;80;21417;-74
2022/03/14 08:30:23;;;;;;;7.58;5.17;;;;;;;10.84;34.39;102639.20;1783659;80;21343;-74
2022/03/14 08:32:55;;;;;;;5.00;4.30;;;;;;;11.38;33.46;102639.34;1783980;80;21271;-74
2022/03/14 08:35:22;;;;;;;5.90;4.03;;;;;;;11.60;33.24;102637.33;1783518;80;20884;-74
2022/03/14 08:37:52;;;;;;;4.65;4.17;;;;;;;11.35;31.76;102634.16;1783464;80;20927;-74
2022/03/14 08:40:21;;;;;;;8.03;4.90;;;;;;;10.95;32.31;102630.56;1783421;80;20939;-74
2022/03/14 08:42:48;;;;;;;5.97;4.58;;;;;;;10.55;32.31;102629.08;1783534;80;21338;-75
2022/03/14 08:45:19;;;;;;;5.75;4.80;;;;;;;9.84;32.86;102629.55;1783566;80;21499;-75
2022/03/14 08:47:48;;;;;;;6.90;5.00;;;;;;;9.19;33.73;102639.81;1783436;80;20939;-73
2022/03/14 08:50:17;;;;;;;7.55;5.87;;;;;;;8.71;34.81;102636.85;1783571;80;20979;-75
2022/03/14 08:52:45;;;;;;;11.38;5.78;;;;;;;8.21;35.68;102628.19;1783489;80;20896;-73
2022/03/14 08:55:13;;;;;;;8.98;6.20;;;;;;;7.84;36.47;102631.41;1783620;80;21030;-74
2022/03/14 08:57:42;;;;;;;9.13;6.95;;;;;;;7.51;36.90;102631.48;1783561;80;21163;-74
2022/03/14 09:00:11;;;;;;;6.40;5.80;;;;;;;7.13;37.43;102632.89;1778140;80;20861;-74
2022/03/14 09:02:41;;;;;;;7.78;6.45;;;;;;;6.88;38.01;102627.13;1775371;80;20932;-74
2022/03/14 09:05:11;;;;;;;8.98;7.17;;;;;;;6.59;38.50;102621.36;1775219;80;21335;-73
2022/03/14 09:07:38;;;;;;;9.25;7.05;;;;;;;6.28;38.64;102623.42;1775495;80;21351;-73
2022/03/14 09:10:08;;;;;;;7.42;5.85;;;;;;;6.05;39.28;102627.55;1774972;80;22099;-74
2022/03/14 09:12:38;;;;;;;8.68;6.72;;;;;;;5.87;39.38;102626.35;1775271;80;21541;-74
2022/03/14 09:15:07;;;;;;;8.43;6.37;;;;;;;5.65;39.79;102629.55;1775354;80;20936;-74
2022/03/14 09:17:48;;;;;;;8.03;5.90;;;;;;;5.48;39.91;102624.48;1775297;80;20971;-73
2022/03/14 09:20:15;;;;;;;6.12;5.40;;;;;;;5.38;40.13;102623.23;1775199;80;21386;-74
2022/03/14 09:22:45;;;;;;;8.75;6.12;;;;;;;5.33;40.52;102612.41;1775191;80;21083;-73
2022/03/14 09:25:14;;;;;;;9.00;6.62;;;;;;;5.23;40.57;102609.46;1775249;80;20924;-73
2022/03/14 09:27:43;;;;;;;9.88;6.40;;;;;;;5.05;40.73;102622.13;1775242;80;20932;-73
2022/03/14 09:30:11;;;;;;;9.18;6.17;;;;;;;4.98;40.98;102616.09;1775269;80;20904;-74
2022/03/14 09:32:38;;;;;;;9.45;6.87;;;;;;;4.91;40.97;102619.56;1775347;80;20995;-73
2022/03/14 09:35:07;;;;;;;9.90;6.33;;;;;;;4.85;41.45;102624.36;1775190;80;21209;-73
2022/03/14 09:37:37;;;;;;;9.20;6.42;;;;;;;4.76;42.04;102620.06;1775255;80;21382;-74
2022/03/14 09:40:06;;;;;;;12.33;6.08;;;;;;;4.61;42.79;102620.55;1775244;80;21387;-73
2022/03/14 09:42:39;;;;;;;12.93;6.45;;;;;;;4.45;43.40;102625.78;1775190;80;20936;-73
2022/03/14 09:45:09;;;;;;;8.55;6.70;;;;;;;4.34;44.09;102620.60;1775526;80;20932;-75
2022/03/14 09:47:42;;;;;;;8.95;6.33;;;;;;;4.24;44.34;102612.38;1775305;80;21658;-75
2022/03/14 09:50:11;;;;;;;7.92;5.53;;;;;;;4.12;44.47;102617.61;1775161;80;21311;-75
2022/03/14 09:52:42;;;;;;;10.90;6.50;;;;;;;4.02;45.03;102610.67;1775340;80;20896;-74
2022/03/14 09:55:10;;;;;;;8.13;5.70;;;;;;;3.88;44.96;102606.36;1775173;80;21462;-73
2022/03/14 09:57:38;;;;;;;7.78;6.00;;;;;;;3.84;44.87;102605.92;1775326;80;21081;-74
2022/03/14 10:00:13;;;;;;;11.73;6.45;;;;;;;3.77;45.14;102602.89;1771877;80;21423;-74
2022/03/14 10:02:43;;;;;;;8.73;6.72;;;;;;;3.77;45.45;102607.23;1768164;81;20928;-73
2022/03/14 10:05:16;;;;;;;9.63;6.37;;;;;;;3.71;45.75;102607.67;1767950;81;20897;-74
2022/03/14 10:07:44;;;;;;;11.03;6.87;;;;;;;3.69;45.76;102599.42;1768030;80;20885;-73
2022/03/14 10:10:14;;;;;;;8.93;6.12;;;;;;;3.70;45.79;102606.36;1768233;81;21386;-74
2022/03/14 10:12:44;;;;;;;9.45;5.67;;;;;;;3.71;45.33;102592.10;1765940;81;20889;-72
2022/03/14 10:15:11;;;;;;;8.98;7.08;;;;;;;3.74;45.47;102600.31;1767998;81;20916;-73
2022/03/14 10:17:41;;;;;;;9.70;6.83;;;;;;;3.79;45.67;102597.28;1768076;80;20873;-73
2022/03/14 10:20:10;;;;;;;10.05;7.37;;;;;;;3.86;45.45;102596.84;1768076;80;20987;-74
2022/03/14 10:22:40;;;;;;;9.30;7.35;;;;;;;3.94;45.43;102601.61;1768392;81;20925;-73
2022/03/14 10:25:09;;;;;;;9.98;6.58;;;;;;;3.99;44.93;102598.57;1768021;81;21236;-73
2022/03/14 10:27:44;;;;;;;9.58;6.97;;;;;;;3.99;44.49;102593.38;1768303;81;20932;-72
2022/03/14 10:30:30;;;;;;;10.10;7.30;;;;;;;3.96;44.71;102588.20;1768060;81;20884;-74
2022/03/14 10:33:12;;;;;;;9.43;7.30;;;;;;;3.90;44.84;102589.05;1768140;81;20980;-72
2022/03/14 10:35:42;;;;;;;8.85;7.62;;;;;;;3.93;44.88;102592.08;1765143;81;21407;-71
2022/03/14 10:38:13;;;;;;;9.18;6.58;;;;;;;3.95;45.20;102583.42;1768157;81;21152;-73
2022/03/14 10:40:45;;;;;;;10.35;6.65;;;;;;;4.01;45.14;102589.50;1768065;81;20936;-72
2022/03/14 10:43:27;;;;;;;11.68;7.10;;;;;;;4.02;44.87;102582.13;1767907;80;20916;-72
2022/03/14 10:45:59;;;;;;;12.55;7.70;;;;;;;4.04;44.53;102576.50;1726903;81;20948;-73
2022/03/14 10:48:43;;;;;;;14.00;8.00;;;;;;;4.02;45.00;102579.53;1768037;80;20940;-75
2022/03/14 10:51:14;;;;;;;9.78;7.05;;;;;;;3.93;45.01;102572.20;1768019;81;21539;-72
2022/03/14 10:53:47;;;;;;;12.73;8.60;;;;;;;3.89;45.45;102572.17;1768019;81;20933;-74
2022/03/14 10:56:17;;;;;;;11.30;7.78;;;;;;;3.88;45.85;102569.16;1768381;81;20952;-74
2022/03/14 10:58:44;;;;;;;9.30;6.97;;;;;;;3.90;46.10;102570.03;1768022;81;21470;-72
2022/03/14 11:01:14;;;;;;;11.63;7.55;;;;;;;3.91;45.99;102564.84;1773522;80;21023;-74
2022/03/14 11:03:42;;;;;;;8.90;6.33;;;;;;;3.91;46.12;102557.47;1775267;80;21125;-73
2022/03/14 11:06:13;;;;;;;12.00;7.47;;;;;;;3.88;46.15;102554.45;1775115;80;20960;-74
2022/03/14 11:08:43;;;;;;;8.40;6.72;;;;;;;3.86;46.71;102550.13;1775270;80;20890;-73
2022/03/14 11:11:21;;;;;;;11.33;7.25;;;;;;;3.84;46.85;102561.80;1775058;80;20904;-72
2022/03/14 11:13:51;;;;;;;12.88;8.55;;;;;;;3.80;47.16;102557.91;1775136;80;20849;-73
2022/03/14 11:16:25;;;;;;;9.90;6.85;;;;;;;3.77;47.32;102557.48;1775202;80;21141;-73
2022/03/14 11:18:53;;;;;;;8.40;7.12;;;;;;;3.74;47.15;102555.77;1774755;80;20885;-74
2022/03/14 11:21:24;;;;;;;9.98;7.30;;;;;;;3.65;47.55;102545.39;1774730;80;20884;-72
2022/03/14 11:23:55;;;;;;;13.25;8.18;;;;;;;3.63;47.79;102542.37;1775368;80;21026;-73
2022/03/14 11:26:25;;;;;;;12.85;9.20;;;;;;;3.61;47.88;102548.84;1775281;80;21375;-71
2022/03/14 11:28:57;;;;;;;13.35;9.35;;;;;;;3.56;48.27;102544.50;1775206;80;21378;-73
2022/03/14 11:31:27;;;;;;;9.10;7.40;;;;;;;3.47;48.44;102539.77;1775255;80;20944;-73
2022/03/14 11:33:54;;;;;;;12.20;8.08;;;;;;;3.43;48.64;102537.17;1775293;80;20931;-73